CheckWX is a tool to help pilots better visualize weather data.  It is not intended as a substitute for an official pre-flight weather briefing.

04:01:53 UTC

KGPT METAR
Gulfport-Biloxi International Airport
Gulfport, Mississippi, USA
Current

9 mins ago

KGPT 250353Z AUTO 15007KT 10SM CLR 22/20 A2993 RMK AO2 SLP134 T02170200
Observed
Apr-25 @ 03:53 UTC
Wind
  • 150° at 7 KTS
Visibility
10 SM
Flight Rules
VFR
Cloud Levels
  • Clear skies
Temperature
22°C / 72°F
Dewpoint
20°C / 68°F
Humidity
88%
Altimeter
29.93" Hg
Pressure
1013.52 hPa
Previous

1 hour ago

KGPT 250253Z 15008KT 10SM FEW045 22/21 A2993 RMK AO2 SLP133 T02220206 55000
Observed
Apr-25 @ 02:53 UTC
Wind
  • 150° at 8 KTS
Visibility
10 SM
Flight Rules
VFR
Cloud Levels
  • Few at 4,500' AGL
Temperature
22°C / 72°F
Dewpoint
21°C / 70°F
Humidity
94%
Altimeter
29.93" Hg
Pressure
1013.52 hPa
Previous

2 hours ago

KGPT 250153Z 14010KT 10SM CLR 22/21 A2992 RMK AO2 SLP131 T02220206
Observed
Apr-25 @ 01:53 UTC
Wind
  • 140° at 10 KTS
Visibility
10 SM
Flight Rules
VFR
Cloud Levels
  • Clear skies
Temperature
22°C / 72°F
Dewpoint
21°C / 70°F
Humidity
94%
Altimeter
29.92" Hg
Pressure
1013.22 hPa